Terminal Aerodrome Forecast
Issued by NWS Denver/Boulder, CO

Home | Current Version | Previous Version | Text Only | Print | Product List | Glossary On
Versions: 1 2 3 4 5 6 7 8 9 10 11 12 13 14 15 16 17 18 19 20 21 22 23 24 25 26 27 28 29 30 31 32 33 34 35 36 37 38 39 40 41 42 43 44 45 46 47 48 49 50
000
FTUS45 KBOU 250803 AAA
TAFDEN
TAF AMD
KDEN 250803Z 2508/2612 23009KT P6SM FEW140 BKN200
     FM251200 19008KT P6SM FEW120 SCT200
     FM251400 05011KT P6SM FEW100 SCT220
     FM251800 12010KT P6SM FEW080 SCT150
     FM252200 21010KT P6SM SCT080 BKN150 PROB30 2523/2602 VRB20G35KT
      -TSRA BKN080CB
     FM260200 21010KT P6SM FEW080 BKN110=

USA.gov is the U.S. government's official web portal to all federal, state and local government web resources and services.